Time;durP1;ratioP1;P1;durP2;ratioP2;P2;SDS_P1;SDS_P2;PMS_P1;PMS_P2;Temp;Humidity;BMP_temperature;BMP_pressure;BME280_temperature;BME280_humidity;BME280_pressure;Samples;Min_cycle;Max_cycle;Signal;HPM_P1;HPM_P2
2023/07/23 00:01:41;;;;;;;5.70;2.78;;;;;;;21.51;91.15;96005.88;5024154;28;20091;-81
2023/07/23 00:04:06;;;;;;;6.55;3.15;;;;;;;21.58;90.34;96001.22;5025548;28;20033;-81
2023/07/23 00:06:33;;;;;;;7.13;3.55;;;;;;;21.62;91.04;96002.38;5031061;28;20032;-82
2023/07/23 00:08:59;;;;;;;4.82;2.80;;;;;;;21.82;89.07;96002.81;5009674;28;20040;-82
2023/07/23 00:11:24;;;;;;;4.63;2.42;;;;;;;21.69;89.57;96000.38;5039624;28;20033;-83
2023/07/23 00:13:50;;;;;;;7.03;3.30;;;;;;;21.67;90.17;95999.81;5013921;28;20025;-83
2023/07/23 00:16:15;;;;;;;6.13;3.38;;;;;;;21.58;90.58;96001.22;5018914;28;20045;-83
2023/07/23 00:18:41;;;;;;;7.07;2.67;;;;;;;21.32;93.68;96007.81;5029078;28;20022;-83
2023/07/23 00:21:06;;;;;;;6.85;2.90;;;;;;;21.36;93.53;96009.00;5026432;28;20029;-83
2023/07/23 00:23:32;;;;;;;7.78;3.58;;;;;;;21.38;92.55;96010.41;5019336;28;20405;-83
2023/07/23 00:25:57;;;;;;;7.90;3.08;;;;;;;21.19;94.79;96008.84;5011964;28;20475;-83
2023/07/23 00:28:39;;;;;;;6.43;3.10;;;;;;;21.04;96.87;96005.84;5029074;28;20473;-84
2023/07/23 00:31:06;;;;;;;;;;;;;;;20.98;96.99;96006.75;5028134;28;20037;-84
2023/07/23 00:34:09;;;;;;;5.47;3.00;;;;;;;20.78;98.85;96002.53;5018122;28;19909;-83
2023/07/23 00:36:35;;;;;;;8.10;3.33;;;;;;;20.77;100.00;95994.75;5026302;28;20071;-83
2023/07/23 00:39:13;;;;;;;6.22;3.20;;;;;;;20.83;99.68;95993.84;5032653;28;20033;-84
2023/07/23 00:41:39;;;;;;;7.03;3.90;;;;;;;20.84;99.04;95990.13;5039021;28;20025;-83
2023/07/23 00:44:04;;;;;;;4.70;2.83;;;;;;;20.94;98.55;95990.34;5014035;28;20025;-83
2023/07/23 00:46:31;;;;;;;7.03;3.10;;;;;;;20.85;98.67;95995.22;5047106;28;20483;-83
2023/07/23 00:49:06;;;;;;;6.50;3.47;;;;;;;20.94;98.30;95991.16;5031707;28;20384;-84
2023/07/23 00:51:34;;;;;;;7.53;3.58;;;;;;;21.04;97.52;95987.94;5034455;28;20037;-84
2023/07/23 00:54:03;;;;;;;6.75;3.08;;;;;;;21.01;98.63;95987.59;5021795;28;20479;-84
2023/07/23 00:56:30;;;;;;;5.68;2.58;;;;;;;21.02;98.13;95989.19;5018219;28;20025;-83
2023/07/23 00:58:56;;;;;;;9.93;3.35;;;;;;;21.11;97.15;95985.16;5022251;28;20033;-83
2023/07/23 01:01:22;;;;;;;5.32;2.85;;;;;;;21.15;96.44;95981.75;5013694;28;20512;-84
2023/07/23 01:03:48;;;;;;;6.70;3.50;;;;;;;21.00;97.26;95986.78;5023614;28;20846;-84
2023/07/23 01:06:14;;;;;;;6.13;2.90;;;;;;;20.70;99.89;95984.16;5034676;28;20026;-84
2023/07/23 01:08:48;;;;;;;6.20;2.85;;;;;;;20.96;98.89;95980.25;5029245;28;20025;-84
2023/07/23 01:11:14;;;;;;;6.13;2.72;;;;;;;20.95;99.46;95982.09;5029691;28;20595;-84
2023/07/23 01:13:40;;;;;;;4.30;2.45;;;;;;;21.05;98.30;95980.72;5018194;28;20075;-84
2023/07/23 01:16:08;;;;;;;6.80;3.17;;;;;;;21.04;97.22;95977.22;5033338;28;20036;-84
2023/07/23 01:18:37;;;;;;;3.88;2.25;;;;;;;20.88;98.45;95976.03;5033614;28;20510;-84
2023/07/23 01:21:03;;;;;;;6.90;2.60;;;;;;;21.02;98.03;95976.63;5018692;28;20132;-84
2023/07/23 01:23:30;;;;;;;7.15;3.10;;;;;;;20.92;98.90;95971.91;5036929;28;20021;-84
2023/07/23 01:26:22;;;;;;;5.90;2.60;;;;;;;20.97;99.16;95973.06;5021661;28;20029;-84
2023/07/23 01:28:47;;;;;;;4.82;2.80;;;;;;;20.99;97.73;95971.75;5033087;28;20113;-84
2023/07/23 01:31:13;;;;;;;4.10;2.30;;;;;;;21.01;97.96;95974.22;5018238;28;20021;-84
2023/07/23 01:33:40;;;;;;;4.65;2.33;;;;;;;21.04;97.80;95973.75;5033182;28;20513;-83
2023/07/23 01:36:06;;;;;;;5.90;2.58;;;;;;;20.82;99.54;95971.63;5017019;28;20044;-84
2023/07/23 01:38:32;;;;;;;5.03;2.33;;;;;;;20.91;98.89;95970.25;5018902;28;20506;-84
2023/07/23 01:40:58;;;;;;;3.90;2.30;;;;;;;20.82;98.70;95960.13;5018018;28;20102;-84
2023/07/23 01:43:24;;;;;;;5.03;2.35;;;;;;;20.80;98.93;95965.69;5041561;28;20068;-84
2023/07/23 01:45:50;;;;;;;4.65;2.30;;;;;;;21.18;96.38;95957.25;5036641;28;20040;-84
2023/07/23 01:48:16;;;;;;;4.38;2.35;;;;;;;21.23;95.30;95961.91;5034405;28;20029;-84
2023/07/23 01:50:42;;;;;;;5.65;2.30;;;;;;;21.15;95.31;95956.88;5042951;28;20037;-84
2023/07/23 01:53:08;;;;;;;4.97;2.47;;;;;;;21.24;95.83;95960.84;5041482;28;20033;-84
2023/07/23 01:55:34;;;;;;;4.32;2.08;;;;;;;21.22;95.62;95959.44;5044898;28;20036;-84
2023/07/23 01:58:00;;;;;;;4.88;2.28;;;;;;;21.12;96.00;95952.00;5042362;28;20463;-84
2023/07/23 02:00:26;;;;;;;6.25;3.17;;;;;;;21.01;97.80;95948.28;5015275;28;20064;-84
2023/07/23 02:02:52;;;;;;;5.68;2.80;;;;;;;21.17;95.31;95941.44;5010761;28;20029;-84
2023/07/23 02:05:21;;;;;;;5.78;2.63;;;;;;;21.31;95.02;95948.16;5034065;28;20514;-84
2023/07/23 02:07:47;;;;;;;5.30;2.40;;;;;;;21.24;96.68;95942.13;5012492;28;20029;-84
2023/07/23 02:10:12;;;;;;;5.40;2.85;;;;;;;21.30;95.39;95948.41;5041704;28;20039;-83
2023/07/23 02:12:38;;;;;;;6.70;2.78;;;;;;;21.22;97.07;95938.88;5033482;28;20021;-84
2023/07/23 02:15:04;;;;;;;5.53;2.42;;;;;;;21.08;97.39;95942.81;5012909;28;20030;-84
2023/07/23 02:17:29;;;;;;;4.95;2.60;;;;;;;21.10;97.71;95940.75;5015619;28;20115;-84
2023/07/23 02:20:25;;;;;;;4.63;2.30;;;;;;;21.09;97.55;95941.78;5034705;28;20048;-84
2023/07/23 02:22:51;;;;;;;5.45;3.13;;;;;;;20.95;98.50;95950.03;5034785;28;20037;-83
2023/07/23 02:25:16;;;;;;;7.90;3.00;;;;;;;20.97;99.01;95949.00;5040770;28;20541;-84
2023/07/23 02:27:47;;;;;;;6.78;2.47;;;;;;;20.98;99.30;95948.75;5037563;28;20638;-84
2023/07/23 02:30:12;;;;;;;4.70;2.58;;;;;;;20.87;99.26;95947.69;5025154;28;20038;-84
2023/07/23 02:32:38;;;;;;;4.43;2.50;;;;;;;20.94;99.34;95950.25;5022137;28;20053;-84
2023/07/23 02:35:04;;;;;;;5.45;2.58;;;;;;;20.86;99.85;95946.06;5020406;28;20036;-84
2023/07/23 02:37:29;;;;;;;5.28;2.60;;;;;;;20.91;99.92;95953.41;5012181;28;20025;-83
2023/07/23 02:39:55;;;;;;;6.30;2.33;;;;;;;20.64;100.00;95953.00;5020563;28;20468;-84
2023/07/23 02:42:21;;;;;;;5.57;2.70;;;;;;;20.53;100.00;95951.94;5024788;28;20034;-84
2023/07/23 02:44:47;;;;;;;5.60;2.92;;;;;;;20.71;100.00;95948.38;5015738;28;20400;-84
2023/07/23 02:47:12;;;;;;;4.43;2.58;;;;;;;20.73;100.00;95951.63;5014147;28;20075;-84
2023/07/23 02:49:38;;;;;;;5.70;2.63;;;;;;;20.74;100.00;95952.44;5024679;28;20444;-84
2023/07/23 02:52:05;;;;;;;5.20;2.83;;;;;;;20.79;100.00;95948.06;5007162;28;20025;-84
2023/07/23 02:54:30;;;;;;;5.47;2.80;;;;;;;20.74;100.00;95947.91;5018621;28;20035;-84
2023/07/23 02:56:56;;;;;;;4.65;2.58;;;;;;;20.66;100.00;95945.59;5027171;28;20556;-84
2023/07/23 02:59:22;;;;;;;5.13;2.03;;;;;;;20.59;100.00;95952.88;5016776;28;20025;-84
2023/07/23 03:01:47;;;;;;;5.33;2.77;;;;;;;20.63;100.00;95951.38;5019427;28;20714;-84
2023/07/23 03:04:13;;;;;;;5.15;2.50;;;;;;;20.57;100.00;95947.75;5013920;28;20076;-84
2023/07/23 03:06:48;;;;;;;9.05;2.60;;;;;;;20.48;100.00;95947.22;5023611;28;20029;-84
2023/07/23 03:09:14;;;;;;;4.60;2.25;;;;;;;20.40;100.00;95939.56;5048618;28;20033;-83
2023/07/23 03:11:39;;;;;;;3.78;2.40;;;;;;;20.44;100.00;95943.41;5023383;28;20030;-84
2023/07/23 03:14:05;;;;;;;5.23;2.60;;;;;;;20.58;100.00;95944.03;5015102;28;20035;-83
2023/07/23 03:16:32;;;;;;;4.60;2.30;;;;;;;20.77;100.00;95939.44;5040002;28;20037;-84
2023/07/23 03:18:58;;;;;;;4.85;3.05;;;;;;;20.73;100.00;95945.47;5031542;28;20033;-84
2023/07/23 03:21:23;;;;;;;5.87;2.60;;;;;;;20.71;100.00;95940.34;5023554;28;20495;-84
2023/07/23 03:23:49;;;;;;;4.77;2.47;;;;;;;20.79;100.00;95945.38;5026660;28;20032;-84
2023/07/23 03:26:22;;;;;;;4.30;2.20;;;;;;;20.54;100.00;95942.88;5023101;28;20083;-84
2023/07/23 03:28:47;;;;;;;4.32;2.50;;;;;;;20.35;100.00;95949.28;5014974;28;20057;-84
2023/07/23 03:31:13;;;;;;;6.97;2.70;;;;;;;20.35;100.00;95944.75;5026362;28;20036;-84
2023/07/23 03:33:47;;;;;;;5.85;2.33;;;;;;;20.49;100.00;95945.41;5029562;28;20027;-84
2023/07/23 03:36:13;;;;;;;6.50;2.65;;;;;;;20.45;100.00;95939.69;5043673;28;20029;-84
2023/07/23 03:38:38;;;;;;;4.43;2.03;;;;;;;20.36;100.00;95946.41;5037170;28;20040;-84
2023/07/23 03:41:05;;;;;;;4.38;2.50;;;;;;;20.42;100.00;95944.66;5025522;28;20475;-83
2023/07/23 03:43:57;;;;;;;4.77;2.20;;;;;;;20.38;100.00;95938.97;5007523;28;20025;-84
2023/07/23 03:46:23;;;;;;;4.37;2.20;;;;;;;20.14;100.00;95939.94;5014871;28;20084;-84
2023/07/23 03:48:48;;;;;;;4.13;2.55;;;;;;;20.13;100.00;95941.00;5031487;28;20029;-83
2023/07/23 03:51:15;;;;;;;4.20;2.37;;;;;;;20.08;100.00;95943.50;5041499;28;20033;-83
2023/07/23 03:53:41;;;;;;;4.23;2.27;;;;;;;20.15;100.00;95938.88;5011140;28;20030;-83
2023/07/23 03:56:06;;;;;;;4.47;2.60;;;;;;;20.04;100.00;95937.81;5033483;28;20101;-84
2023/07/23 03:58:32;;;;;;;5.07;2.47;;;;;;;20.34;100.00;95940.47;5018767;28;20051;-84
2023/07/23 04:00:58;;;;;;;4.57;2.47;;;;;;;20.35;100.00;95941.28;5029440;28;20615;-84
2023/07/23 04:03:23;;;;;;;5.20;2.63;;;;;;;20.51;100.00;95939.84;5029021;28;20024;-84
2023/07/23 04:06:16;;;;;;;4.97;2.10;;;;;;;20.53;100.00;95943.94;5038079;28;20032;-84
2023/07/23 04:08:42;;;;;;;5.13;2.60;;;;;;;20.58;100.00;95935.22;5027453;28;20036;-84
2023/07/23 04:11:08;;;;;;;4.73;2.37;;;;;;;20.57;100.00;95941.63;5023363;28;20029;-84
2023/07/23 04:13:33;;;;;;;5.40;2.37;;;;;;;20.73;100.00;95938.28;5035039;28;20016;-84
2023/07/23 04:16:11;;;;;;;4.63;2.37;;;;;;;20.75;100.00;95946.06;5030900;28;20100;-83
2023/07/23 04:18:51;;;;;;;6.70;2.33;;;;;;;20.77;100.00;95942.13;5023130;28;20032;-83
2023/07/23 04:21:18;;;;;;;5.00;2.70;;;;;;;20.68;100.00;95940.81;5018299;28;20026;-83
2023/07/23 04:23:48;;;;;;;5.40;2.33;;;;;;;20.81;100.00;95947.81;5036567;28;20027;-83
2023/07/23 04:26:15;;;;;;;4.03;2.33;;;;;;;20.88;100.00;95946.66;5041407;28;20053;-83
2023/07/23 04:28:41;;;;;;;4.13;2.10;;;;;;;21.05;100.00;95956.66;5026078;28;20024;-83
2023/07/23 04:31:07;;;;;;;5.37;2.23;;;;;;;21.05;100.00;95944.09;5022549;28;20030;-83
2023/07/23 04:33:33;;;;;;;5.70;2.53;;;;;;;21.13;100.00;95948.31;5021970;28;20112;-83
2023/07/23 04:36:07;;;;;;;4.63;2.00;;;;;;;21.23;100.00;95950.38;5043457;28;20021;-84
2023/07/23 04:38:36;;;;;;;5.13;2.20;;;;;;;21.23;100.00;95951.22;5039270;28;20499;-83
2023/07/23 04:41:17;;;;;;;3.67;1.90;;;;;;;21.39;100.00;95947.03;5029701;28;20487;-84
2023/07/23 04:43:43;;;;;;;4.60;2.42;;;;;;;21.24;100.00;95952.81;5033875;28;20480;-83
2023/07/23 04:46:18;;;;;;;4.10;2.37;;;;;;;21.47;100.00;95952.03;5020748;28;20120;-83
2023/07/23 04:48:43;;;;;;;5.05;2.40;;;;;;;21.61;100.00;95952.59;5038238;28;20112;-83
2023/07/23 04:51:09;;;;;;;4.07;2.17;;;;;;;21.70;100.00;95953.06;5043566;28;20028;-83
2023/07/23 04:53:35;;;;;;;4.13;2.35;;;;;;;21.80;99.56;95954.06;5045346;28;20056;-83
2023/07/23 04:56:03;;;;;;;4.45;2.33;;;;;;;21.80;99.50;95954.06;5029984;28;20104;-83
2023/07/23 04:58:29;;;;;;;5.03;2.42;;;;;;;21.95;97.38;95950.06;5047318;28;20087;-83
2023/07/23 05:00:55;;;;;;;4.38;2.13;;;;;;;22.11;97.28;95954.66;5022329;28;20045;-83
2023/07/23 05:03:21;;;;;;;4.23;2.30;;;;;;;22.15;97.02;95949.66;5014815;28;20504;-83
2023/07/23 05:05:51;;;;;;;4.22;2.13;;;;;;;22.02;97.54;95953.41;5051361;28;20017;-84
2023/07/23 05:08:22;;;;;;;4.18;2.28;;;;;;;22.19;96.85;95954.31;5021686;28;20136;-83
2023/07/23 05:10:48;;;;;;;5.07;2.03;;;;;;;22.48;95.47;95952.44;5039970;28;20112;-84
2023/07/23 05:13:14;;;;;;;5.47;2.15;;;;;;;22.46;96.72;95949.16;5031703;28;20116;-83
2023/07/23 05:15:41;;;;;;;4.53;2.40;;;;;;;22.65;94.15;95948.97;5036937;28;20052;-84
2023/07/23 05:18:06;;;;;;;3.35;1.88;;;;;;;22.64;92.03;95955.38;5036014;28;20419;-84
2023/07/23 05:20:32;;;;;;;5.28;2.05;;;;;;;22.75;92.30;95949.94;5025544;28;20025;-84
2023/07/23 05:22:58;;;;;;;6.13;2.28;;;;;;;23.01;90.27;95961.13;5025386;28;20035;-83
2023/07/23 05:25:23;;;;;;;3.08;2.00;;;;;;;22.88;91.95;95962.22;5038858;28;20037;-83
2023/07/23 05:27:49;;;;;;;5.15;2.80;;;;;;;23.07;89.48;95968.16;5037543;28;20030;-84
2023/07/23 05:30:21;;;;;;;5.03;2.78;;;;;;;23.17;88.67;95965.66;5027487;28;20422;-83
2023/07/23 05:32:47;;;;;;;4.30;2.03;;;;;;;23.45;87.22;95953.19;5014344;28;20022;-84
2023/07/23 05:35:13;;;;;;;7.78;2.17;;;;;;;23.52;86.50;95957.31;5030943;28;20398;-83
2023/07/23 05:37:38;;;;;;;4.47;2.13;;;;;;;23.83;84.63;95954.25;5023259;28;20030;-83
2023/07/23 05:40:05;;;;;;;3.90;2.03;;;;;;;24.28;81.28;95951.28;5039847;28;20109;-84
2023/07/23 05:42:30;;;;;;;6.90;2.65;;;;;;;24.56;79.00;95957.50;5022068;28;20499;-83
2023/07/23 05:44:56;;;;;;;5.05;2.22;;;;;;;24.28;79.99;95958.50;5039843;28;20021;-83
2023/07/23 05:47:21;;;;;;;4.63;2.45;;;;;;;24.65;80.72;95956.78;5024979;28;20230;-84
2023/07/23 05:49:47;;;;;;;5.65;2.35;;;;;;;24.77;79.57;95956.59;5032950;28;20017;-84
2023/07/23 05:52:12;;;;;;;6.82;2.30;;;;;;;25.13;74.29;95960.41;5018579;28;20025;-82
2023/07/23 05:54:38;;;;;;;4.65;2.28;;;;;;;25.23;72.45;95954.31;5028886;28;20395;-83
2023/07/23 05:57:10;;;;;;;5.65;2.28;;;;;;;25.35;72.88;95946.03;5020238;28;20025;-84
2023/07/23 05:59:36;;;;;;;6.03;2.60;;;;;;;25.21;68.88;95951.06;5037004;28;20025;-84
2023/07/23 06:02:02;;;;;;;4.43;2.15;;;;;;;25.39;68.13;95952.53;5029821;28;20057;-83
2023/07/23 06:04:27;;;;;;;4.50;2.45;;;;;;;25.61;68.37;95946.97;5021626;28;20387;-84
2023/07/23 06:06:55;;;;;;;4.57;2.53;;;;;;;25.75;66.08;95958.09;5031959;28;20099;-83
2023/07/23 06:09:21;;;;;;;5.60;2.35;;;;;;;25.90;65.28;95957.41;5032499;28;20399;-84
2023/07/23 06:11:47;;;;;;;5.93;2.40;;;;;;;26.12;65.23;95946.41;5028395;28;20021;-83
2023/07/23 06:14:13;;;;;;;4.72;2.35;;;;;;;26.30;62.51;95951.34;5028492;28;20037;-83
2023/07/23 06:16:38;;;;;;;3.17;1.95;;;;;;;26.49;61.45;95949.81;5024005;28;20037;-83
2023/07/23 06:19:04;;;;;;;5.70;2.05;;;;;;;26.73;59.33;95950.09;5032062;28;20415;-83
2023/07/23 06:21:29;;;;;;;3.92;2.33;;;;;;;26.80;59.31;95956.03;5019559;28;20079;-83
2023/07/23 06:23:57;;;;;;;3.70;2.10;;;;;;;26.61;58.90;95954.94;5015698;28;20021;-84
2023/07/23 06:26:22;;;;;;;3.67;2.20;;;;;;;27.20;58.07;95953.63;5034279;28;20017;-84
2023/07/23 06:28:48;;;;;;;4.55;1.70;;;;;;;26.82;56.64;95954.94;5019505;28;20390;-83
2023/07/23 06:31:14;;;;;;;4.93;2.42;;;;;;;26.93;54.64;95949.31;5028617;28;20032;-83
2023/07/23 06:33:40;;;;;;;5.20;2.00;;;;;;;26.92;53.71;95952.25;5013976;28;20033;-83
2023/07/23 06:36:05;;;;;;;4.38;2.28;;;;;;;27.49;52.60;95962.75;5032155;28;20589;-82
2023/07/23 06:38:34;;;;;;;3.97;1.90;;;;;;;27.90;51.44;95945.63;5043777;28;20426;-83
2023/07/23 06:40:59;;;;;;;4.15;2.05;;;;;;;27.37;51.28;95948.75;5040805;28;20083;-84
2023/07/23 06:43:26;;;;;;;3.65;1.85;;;;;;;27.83;50.37;95948.63;5030638;28;20018;-83
2023/07/23 06:45:51;;;;;;;3.50;1.98;;;;;;;28.51;48.44;95955.41;5043406;28;20028;-83
2023/07/23 06:49:02;;;;;;;4.30;2.22;;;;;;;28.29;48.41;95953.03;5037602;28;20399;-83
2023/07/23 06:51:27;;;;;;;4.35;2.05;;;;;;;28.27;48.46;95953.34;5039337;28;20039;-82
2023/07/23 06:53:53;;;;;;;4.45;2.00;;;;;;;27.85;48.40;95951.88;5034187;28;20484;-83
2023/07/23 06:56:25;;;;;;;12.15;2.60;;;;;;;28.47;47.38;95954.31;5022043;28;20040;-83
2023/07/23 06:58:50;;;;;;;4.05;2.10;;;;;;;28.64;47.05;95957.47;5034726;28;20512;-83
2023/07/23 07:01:28;;;;;;;5.18;2.40;;;;;;;28.28;47.25;95946.81;5023554;28;20029;-83
2023/07/23 07:03:56;;;;;;;3.75;2.10;;;;;;;29.21;45.59;95947.00;5033052;28;20021;-83
2023/07/23 07:06:22;;;;;;;5.38;2.50;;;;;;;29.16;45.04;95956.00;5017583;28;20025;-83
2023/07/23 07:08:47;;;;;;;5.30;2.33;;;;;;;29.16;44.68;95950.59;5020923;28;20018;-84
2023/07/23 07:11:13;;;;;;;7.45;2.80;;;;;;;29.08;44.52;95948.50;5033000;28;20376;-83
2023/07/23 07:14:00;;;;;;;5.22;2.15;;;;;;;29.74;43.56;95949.75;5031379;28;20021;-83
2023/07/23 07:16:25;;;;;;;4.88;2.10;;;;;;;29.82;42.57;95954.56;5028745;28;20491;-83
2023/07/23 07:19:17;;;;;;;2.80;1.77;;;;;;;30.19;42.13;95953.88;5012743;28;20057;-83
2023/07/23 07:21:42;;;;;;;6.55;2.00;;;;;;;31.17;40.35;95958.69;5025222;28;20052;-83
2023/07/23 07:24:08;;;;;;;4.60;2.28;;;;;;;30.48;40.52;95961.06;5014927;28;20049;-83
2023/07/23 07:26:34;;;;;;;4.18;2.28;;;;;;;30.17;41.21;95958.75;5022332;28;20068;-83
2023/07/23 07:29:00;;;;;;;4.72;2.10;;;;;;;29.52;41.64;95964.59;5030932;28;20127;-84
2023/07/23 07:34:35;;;;;;;3.13;1.90;;;;;;;29.01;41.60;95964.28;5029886;28;20021;-84
2023/07/23 07:37:01;;;;;;;4.20;2.25;;;;;;;29.73;41.95;95970.66;5037855;28;20017;-83
2023/07/23 07:39:43;;;;;;;4.65;2.22;;;;;;;30.74;39.72;95962.31;5030702;28;20028;-83
2023/07/23 07:42:09;;;;;;;3.17;2.10;;;;;;;31.16;39.20;95960.59;5032617;28;20029;-83
2023/07/23 07:44:40;;;;;;;4.28;2.25;;;;;;;31.42;38.66;95966.44;5031151;28;20033;-83
2023/07/23 07:47:05;;;;;;;4.15;2.40;;;;;;;31.46;37.85;95967.44;5039088;28;20021;-83
2023/07/23 07:49:31;;;;;;;4.18;2.38;;;;;;;31.27;37.59;95966.66;5030388;28;20083;-83
2023/07/23 07:52:00;;;;;;;3.33;2.20;;;;;;;30.42;38.41;95971.19;5012623;28;20128;-83
2023/07/23 07:54:26;;;;;;;3.78;1.90;;;;;;;30.41;38.42;95963.34;5025534;28;20104;-83
2023/07/23 07:56:52;;;;;;;4.18;2.10;;;;;;;31.32;37.29;95963.91;5015932;28;20120;-83
2023/07/23 07:59:18;;;;;;;3.47;2.10;;;;;;;31.61;37.03;95957.41;5012242;28;20018;-82
2023/07/23 08:01:43;;;;;;;3.88;2.35;;;;;;;31.04;37.28;95962.16;5028431;28;20486;-83
2023/07/23 08:04:10;;;;;;;3.53;2.20;;;;;;;31.75;36.68;95952.78;5029018;28;20129;-83
2023/07/23 08:06:37;;;;;;;9.13;2.60;;;;;;;32.19;36.47;95948.66;5014524;28;20387;-83
2023/07/23 08:09:04;;;;;;;3.78;2.17;;;;;;;32.89;35.75;95957.47;5039440;28;20582;-83
2023/07/23 08:11:46;;;;;;;8.75;2.45;;;;;;;32.26;35.90;95954.50;5024818;28;20017;-83
2023/07/23 08:14:13;;;;;;;;;;;;;;;31.29;36.29;95952.78;5013374;28;20033;-83
2023/07/23 08:16:40;;;;;;;3.58;2.05;;;;;;;32.48;35.17;95945.63;5017451;28;20425;-83
2023/07/23 08:19:06;;;;;;;4.40;2.20;;;;;;;32.17;35.48;95942.72;5019340;28;20369;-83
2023/07/23 08:21:52;;;;;;;3.45;2.03;;;;;;;33.74;34.01;95950.22;5018197;28;20022;-83
2023/07/23 08:24:17;;;;;;;3.30;2.03;;;;;;;33.46;33.73;95952.28;5025845;28;20029;-83
2023/07/23 08:26:47;;;;;;;4.75;2.22;;;;;;;33.90;33.56;95942.38;5018183;28;20498;-83
2023/07/23 08:29:25;;;;;;;4.00;2.30;;;;;;;33.07;34.00;95949.16;5034578;28;20025;-83
2023/07/23 08:32:19;;;;;;;3.95;2.20;;;;;;;33.87;33.35;95945.75;5034280;28;20060;-83
2023/07/23 08:34:48;;;;;;;2.88;1.95;;;;;;;32.91;34.14;95944.38;5034384;28;20563;-84
2023/07/23 08:37:22;;;;;;;3.85;2.17;;;;;;;34.10;33.66;95941.03;5017990;28;20025;-84
2023/07/23 08:39:48;;;;;;;5.57;2.50;;;;;;;32.05;35.12;95940.50;5034950;28;20017;-84
2023/07/23 08:42:59;;;;;;;4.70;2.55;;;;;;;31.73;35.83;95943.31;5034721;28;20121;-83
2023/07/23 08:45:46;;;;;;;3.17;1.75;;;;;;;31.27;37.21;95946.84;5025572;28;20520;-84
2023/07/23 08:48:21;;;;;;;3.88;2.10;;;;;;;31.62;36.80;95948.13;5018539;28;20423;-89
2023/07/23 08:50:48;;;;;;;4.38;2.00;;;;;;;32.29;36.17;95939.47;5039550;28;20039;-84
2023/07/23 08:53:18;;;;;;;4.32;1.80;;;;;;;32.40;35.48;95951.75;5041294;28;20521;-90
2023/07/23 08:55:45;;;;;;;2.78;1.90;;;;;;;32.36;35.58;95942.56;5040635;28;20040;-84
2023/07/23 08:58:18;;;;;;;2.65;1.70;;;;;;;32.37;35.71;95947.72;5042770;28;20040;-83
2023/07/23 09:00:46;;;;;;;3.83;1.67;;;;;;;34.07;34.33;95945.19;5037475;28;20024;-84
2023/07/23 09:03:14;;;;;;;3.50;2.30;;;;;;;33.41;34.77;95945.03;5014228;28;20030;-84
2023/07/23 09:05:41;;;;;;;3.55;2.25;;;;;;;34.39;33.78;95949.44;5014447;28;20026;-84
2023/07/23 09:08:15;;;;;;;3.78;2.00;;;;;;;34.05;33.98;95936.53;5002537;28;20029;-83
2023/07/23 09:10:41;;;;;;;3.60;2.08;;;;;;;33.06;34.89;95942.09;5016511;28;20024;-83
2023/07/23 09:13:11;;;;;;;3.65;1.95;;;;;;;32.89;36.03;95952.84;5034301;28;20033;-87
2023/07/23 09:15:37;;;;;;;4.50;1.92;;;;;;;33.04;35.84;95951.72;5032297;28;20357;-83
2023/07/23 09:18:03;;;;;;;2.78;1.75;;;;;;;32.91;35.77;95949.81;5029993;28;20033;-82
2023/07/23 09:20:38;;;;;;;3.67;1.75;;;;;;;32.59;35.90;95946.19;5018711;28;20044;-82
2023/07/23 09:23:07;;;;;;;3.65;2.05;;;;;;;32.90;35.29;95943.56;5012100;28;20076;-83
2023/07/23 09:25:33;;;;;;;5.80;2.20;;;;;;;33.21;35.55;95945.56;5012782;28;20049;-84
2023/07/23 09:27:58;;;;;;;5.40;2.00;;;;;;;32.59;35.95;95946.97;5031507;28;20061;-86
2023/07/23 09:30:25;;;;;;;3.58;2.13;;;;;;;32.42;36.20;95938.66;5031364;28;20036;-84
2023/07/23 09:32:59;;;;;;;3.35;2.20;;;;;;;32.51;36.72;95936.84;5023944;28;20042;-85
2023/07/23 09:35:28;;;;;;;4.28;1.67;;;;;;;32.09;36.49;95932.53;5002170;28;20026;-83
2023/07/23 09:38:00;;;;;;;3.97;2.05;;;;;;;30.99;38.40;95941.34;5019773;28;20100;-86
2023/07/23 09:40:36;;;;;;;5.93;2.28;;;;;;;30.09;39.83;95942.31;5002747;28;20361;-84
2023/07/23 09:43:03;;;;;;;3.13;1.98;;;;;;;31.00;38.85;95938.31;5001535;28;20038;-86
2023/07/23 09:45:30;;;;;;;5.00;2.60;;;;;;;30.42;39.43;95930.50;4986453;28;20030;-89
2023/07/23 09:48:01;;;;;;;5.03;2.35;;;;;;;30.20;40.23;95930.25;5000012;28;20041;-87
2023/07/23 09:50:26;;;;;;;6.03;3.47;;;;;;;30.96;40.04;95936.50;5002379;28;20040;-86
2023/07/23 09:53:08;;;;;;;6.10;2.90;;;;;;;30.47;40.41;95932.31;5002635;28;20025;-87
2023/07/23 09:55:36;;;;;;;5.45;2.22;;;;;;;31.18;39.10;95933.13;5003118;28;20026;-87
2023/07/23 09:58:02;;;;;;;3.63;1.98;;;;;;;31.19;39.54;95935.56;5024662;28;20783;-85
2023/07/23 10:00:28;;;;;;;3.72;1.92;;;;;;;30.84;39.23;95928.00;5003896;28;20042;-85
2023/07/23 10:03:17;;;;;;;4.32;2.60;;;;;;;31.20;39.14;95931.75;5011979;28;20099;-85
2023/07/23 10:05:42;;;;;;;3.17;1.83;;;;;;;31.83;38.24;95924.09;5017365;28;20064;-83
2023/07/23 10:08:09;;;;;;;4.72;2.42;;;;;;;31.45;38.83;95924.25;5028560;28;20021;-84
2023/07/23 10:10:35;;;;;;;4.07;2.50;;;;;;;31.27;38.54;95925.13;5027921;28;20088;-85
2023/07/23 10:13:00;;;;;;;5.38;2.97;;;;;;;31.93;38.14;95918.47;5032720;28;20022;-84
2023/07/23 10:15:31;;;;;;;6.50;3.15;;;;;;;32.60;37.15;95912.41;5014651;28;20095;-83
2023/07/23 10:18:00;;;;;;;3.55;2.08;;;;;;;32.54;37.47;95903.56;5022980;28;20573;-83
2023/07/23 10:20:28;;;;;;;5.85;2.20;;;;;;;32.60;37.22;95905.06;5019626;28;20028;-83
2023/07/23 10:22:54;;;;;;;2.58;1.63;;;;;;;31.36;38.75;95907.06;5017357;28;20560;-82
2023/07/23 10:25:31;;;;;;;4.20;2.17;;;;;;;31.23;38.91;95901.25;5016025;28;20100;-83
2023/07/23 10:28:05;;;;;;;5.80;2.55;;;;;;;32.14;37.86;95897.09;5013226;28;20179;-84
2023/07/23 10:30:33;;;;;;;3.38;2.13;;;;;;;32.91;37.04;95900.78;5034993;28;20021;-84
2023/07/23 10:33:11;;;;;;;6.45;2.30;;;;;;;33.59;36.18;95896.06;5014003;28;20030;-84
2023/07/23 10:35:55;;;;;;;4.97;2.67;;;;;;;32.99;35.83;95897.34;5014500;28;20021;-83
2023/07/23 10:38:38;;;;;;;6.20;2.10;;;;;;;32.77;36.61;95907.09;5032499;28;20108;-83
2023/07/23 10:41:04;;;;;;;;;;;;;;;32.14;37.54;95900.59;5015239;28;20403;-82
2023/07/23 10:43:44;;;;;;;5.00;2.55;;;;;;;32.21;37.93;95893.94;5031423;28;20385;-82
2023/07/23 10:46:18;;;;;;;5.18;2.58;;;;;;;32.14;38.05;95889.72;5025699;28;20434;-82
2023/07/23 10:48:49;;;;;;;5.10;2.13;;;;;;;32.43;37.73;95891.31;5015069;28;20068;-81
2023/07/23 10:51:20;;;;;;;4.45;2.55;;;;;;;32.29;37.10;95877.69;4996329;28;20962;-81
2023/07/23 10:54:06;;;;;;;4.75;2.80;;;;;;;32.85;36.89;95875.59;5013577;28;20030;-82
2023/07/23 10:56:38;;;;;;;3.85;2.50;;;;;;;32.27;37.11;95876.41;5015053;28;20693;-82
2023/07/23 10:59:08;;;;;;;5.72;2.88;;;;;;;33.36;36.04;95879.75;5012537;28;20034;-82
2023/07/23 11:01:41;;;;;;;4.70;2.50;;;;;;;32.86;35.78;95877.19;5013465;28;20028;-82
2023/07/23 11:04:18;;;;;;;5.10;2.95;;;;;;;34.09;34.86;95884.84;5016433;28;20112;-83
2023/07/23 11:07:00;;;;;;;8.93;3.88;;;;;;;34.77;33.74;95875.09;5014897;28;20036;-82
2023/07/23 11:09:27;;;;;;;;;;;;;;;34.25;34.15;95875.09;4999093;28;20034;-83
2023/07/23 11:11:54;;;;;;;4.35;2.50;;;;;;;35.28;32.92;95873.44;5015504;28;19952;-85
2023/07/23 11:14:26;;;;;;;6.70;2.63;;;;;;;33.87;34.59;95866.63;5013976;28;20364;-82
2023/07/23 11:16:59;;;;;;;4.80;2.50;;;;;;;33.76;34.19;95869.66;5019393;28;20032;-84
2023/07/23 11:19:26;;;;;;;4.95;2.83;;;;;;;32.85;35.21;95868.22;5029956;28;20037;-83
2023/07/23 11:22:03;;;;;;;5.60;2.25;;;;;;;32.95;35.76;95863.63;5010256;28;20029;-84
2023/07/23 11:24:30;;;;;;;5.30;2.90;;;;;;;33.37;34.75;95862.28;5028257;28;20397;-83
2023/07/23 11:27:04;;;;;;;7.80;3.08;;;;;;;33.56;34.70;95853.88;5011053;28;20045;-82
2023/07/23 11:29:52;;;;;;;5.35;3.00;;;;;;;34.55;33.77;95851.50;5028780;28;20136;-81
2023/07/23 11:32:25;;;;;;;5.75;3.50;;;;;;;33.79;33.27;95860.03;5005687;28;20026;-82
2023/07/23 11:34:57;;;;;;;5.88;3.53;;;;;;;34.50;32.91;95860.63;5013452;28;20559;-81
2023/07/23 11:37:28;;;;;;;6.97;3.83;;;;;;;34.77;32.42;95847.78;5013941;28;20039;-80
2023/07/23 11:39:55;;;;;;;7.00;3.70;;;;;;;34.10;32.18;95848.25;5016268;28;21215;-86
2023/07/23 11:42:21;;;;;;;5.40;3.05;;;;;;;34.85;31.94;95841.50;5004105;28;20518;-82
2023/07/23 11:45:03;;;;;;;6.38;3.78;;;;;;;34.69;31.43;95848.59;4996520;28;20026;-81